Time;durP1;ratioP1;P1;durP2;ratioP2;P2;SDS_P1;SDS_P2;PMS_P1;PMS_P2;Temp;Humidity;BMP_temperature;BMP_pressure;BME280_temperature;BME280_humidity;BME280_pressure;Samples;Min_cycle;Max_cycle;Signal;HPM_P1;HPM_P2
2023/01/03 00:01:17;;;;;;;18.83;11.70;;;6.00;99.90;;;;;;5084958;28;20047;-72
2023/01/03 00:03:43;;;;;;;17.58;11.27;;;6.00;99.90;;;;;;5088852;28;20418;-72
2023/01/03 00:06:23;;;;;;;19.52;12.10;;;6.00;99.90;;;;;;5083980;28;20037;-72
2023/01/03 00:08:49;;;;;;;16.15;11.43;;;6.00;99.90;;;;;;5080717;28;20049;-72
2023/01/03 00:12:22;;;;;;;19.95;11.88;;;6.00;99.90;;;;;;5087422;28;20047;-72
2023/01/03 00:14:08;;;;;;;19.33;11.77;;;6.00;99.90;;;;;;5078687;28;20047;-72
2023/01/03 00:16:34;;;;;;;17.88;11.35;;;6.00;99.90;;;;;;5084620;28;20040;-72
2023/01/03 00:19:07;;;;;;;20.48;11.90;;;6.00;99.90;;;;;;5082249;28;20040;-72
2023/01/03 00:21:33;;;;;;;17.42;11.32;;;5.90;99.90;;;;;;5097359;27;20495;-72
2023/01/03 00:23:59;;;;;;;20.98;11.63;;;5.90;99.90;;;;;;5084642;28;20044;-72
2023/01/03 00:26:25;;;;;;;19.08;12.27;;;5.90;99.90;;;;;;5086646;28;20035;-72
2023/01/03 00:28:50;;;;;;;19.30;12.75;;;5.90;99.90;;;;;;5064231;28;20043;-72
2023/01/03 00:31:16;;;;;;;21.60;12.50;;;5.90;99.90;;;;;;5065195;28;20043;-72
2023/01/03 00:33:42;;;;;;;21.77;11.77;;;5.90;99.90;;;;;;5085313;28;20577;-72
2023/01/03 00:36:08;;;;;;;19.67;12.05;;;5.90;99.90;;;;;;5086612;28;20070;-73
2023/01/03 00:38:34;;;;;;;17.13;12.13;;;5.80;99.90;;;;;;5062370;28;20044;-72
2023/01/03 00:41:19;;;;;;;19.33;12.50;;;5.80;99.90;;;;;;5080070;28;20044;-73
2023/01/03 00:43:46;;;;;;;17.60;12.38;;;5.80;99.90;;;;;;5084571;28;20040;-72
2023/01/03 00:46:13;;;;;;;18.73;12.68;;;5.70;99.90;;;;;;5084557;28;20067;-72
2023/01/03 00:48:39;;;;;;;17.65;13.05;;;5.70;99.90;;;;;;5078951;28;20032;-72
2023/01/03 00:51:11;;;;;;;15.65;11.82;;;5.60;99.90;;;;;;5078565;28;20072;-73
2023/01/03 00:53:38;;;;;;;20.35;13.00;;;5.70;99.90;;;;;;5085460;28;20107;-73
2023/01/03 00:56:05;;;;;;;16.48;12.15;;;5.70;99.90;;;;;;5090540;28;20127;-72
2023/01/03 00:58:32;;;;;;;18.55;13.50;;;5.70;99.90;;;;;;5084434;28;20115;-72
2023/01/03 01:01:11;;;;;;;19.35;12.57;;;5.60;99.90;;;;;;5087290;28;20113;-72
2023/01/03 01:03:39;;;;;;;17.17;13.18;;;5.60;99.90;;;;;;5066163;28;20066;-72
2023/01/03 01:06:16;;;;;;;19.95;12.55;;;5.60;99.90;;;;;;5068531;28;20036;-72
2023/01/03 01:08:42;;;;;;;24.43;13.17;;;5.60;99.90;;;;;;5068475;28;20059;-72
2023/01/03 01:11:09;;;;;;;16.38;12.73;;;5.60;99.90;;;;;;5086139;28;20062;-72
2023/01/03 01:13:36;;;;;;;17.90;12.27;;;5.60;99.90;;;;;;5085346;28;20113;-72
2023/01/03 01:16:10;;;;;;;16.60;11.93;;;5.60;99.90;;;;;;5099646;27;20051;-72
2023/01/03 01:18:36;;;;;;;17.35;12.43;;;5.60;99.90;;;;;;5081149;28;20109;-72
2023/01/03 01:21:07;;;;;;;16.90;11.70;;;5.60;99.90;;;;;;5067020;28;20056;-72
2023/01/03 01:23:35;;;;;;;18.65;12.65;;;5.50;99.90;;;;;;5077083;28;20422;-72
2023/01/03 01:26:01;;;;;;;19.17;12.25;;;5.50;99.90;;;;;;5086750;28;20136;-72
2023/01/03 01:28:27;;;;;;;19.58;13.43;;;5.50;99.90;;;;;;5076191;28;20047;-72
2023/01/03 01:30:53;;;;;;;19.00;13.23;;;5.40;99.90;;;;;;5084748;28;20115;-72
2023/01/03 01:33:18;;;;;;;17.63;12.35;;;5.40;99.90;;;;;;5082473;28;20483;-72
2023/01/03 01:35:44;;;;;;;18.40;12.57;;;5.40;99.90;;;;;;5069254;28;20051;-72
2023/01/03 01:38:10;;;;;;;18.85;12.88;;;5.30;99.90;;;;;;5060855;28;20059;-72
2023/01/03 01:40:35;;;;;;;20.38;12.85;;;5.30;99.90;;;;;;5060834;28;20039;-72
2023/01/03 01:46:10;;;;;;;16.48;11.98;;;5.20;99.90;;;;;;5082372;28;20048;-72
2023/01/03 01:48:35;;;;;;;17.13;12.43;;;5.20;99.90;;;;;;5085932;28;20040;-72
2023/01/03 01:51:01;;;;;;;18.92;12.57;;;5.10;99.90;;;;;;5081478;28;20114;-73
2023/01/03 01:53:34;;;;;;;20.55;12.43;;;5.10;99.90;;;;;;5085109;28;20076;-72
2023/01/03 01:55:59;;;;;;;18.00;12.43;;;5.00;99.90;;;;;;5081462;28;20560;-72
2023/01/03 01:58:31;;;;;;;18.50;12.18;;;5.00;99.90;;;;;;5085705;28;20171;-72
2023/01/03 02:00:58;;;;;;;19.65;13.05;;;5.00;99.90;;;;;;5064330;28;20173;-71
2023/01/03 02:03:23;;;;;;;17.70;11.88;;;5.00;99.90;;;;;;5083888;28;20048;-72
2023/01/03 02:05:53;;;;;;;20.90;12.55;;;4.90;99.90;;;;;;5083885;28;20077;-73
2023/01/03 02:08:18;;;;;;;17.65;13.30;;;4.90;99.90;;;;;;5096555;28;20130;-72
2023/01/03 02:10:58;;;;;;;18.55;13.20;;;4.90;99.90;;;;;;5081808;28;20187;-72
2023/01/03 02:14:01;;;;;;;21.10;13.55;;;4.80;99.90;;;;;;5081068;28;20055;-72
2023/01/03 02:16:35;;;;;;;23.27;13.32;;;4.80;99.90;;;;;;5075307;28;20044;-72
2023/01/03 02:19:20;;;;;;;18.45;12.57;;;4.80;99.90;;;;;;5065499;28;20160;-72
2023/01/03 02:22:07;;;;;;;19.23;13.38;;;4.70;99.90;;;;;;5082949;28;20066;-72
2023/01/03 02:24:39;;;;;;;;;;;4.70;99.90;;;;;;5078567;28;20044;-72
2023/01/03 02:27:16;;;;;;;19.67;13.80;;;4.60;99.90;;;;;;5078277;28;20372;-72
2023/01/03 02:30:16;;;;;;;22.25;13.82;;;4.60;99.90;;;;;;5081558;28;20047;-72
2023/01/03 02:32:49;;;;;;;18.88;14.10;;;4.60;99.90;;;;;;5081462;28;20170;-72
2023/01/03 02:35:29;;;;;;;23.13;15.18;;;4.50;99.90;;;;;;5093244;28;20044;-72
2023/01/03 02:38:07;;;;;;;23.65;14.68;;;4.50;99.90;;;;;;5063710;28;20127;-72
2023/01/03 02:40:35;;;;;;;23.25;15.48;;;4.50;99.90;;;;;;5075568;28;20550;-73
2023/01/03 02:43:16;;;;;;;19.83;14.68;;;4.40;99.90;;;;;;5079717;28;20490;-72
2023/01/03 02:46:05;;;;;;;20.55;14.15;;;4.50;99.90;;;;;;5084053;28;20074;-72
2023/01/03 02:48:31;;;;;;;22.00;16.08;;;4.40;99.90;;;;;;5081846;28;20056;-72
2023/01/03 02:51:01;;;;;;;25.85;16.38;;;4.40;99.90;;;;;;5079985;28;20536;-72
2023/01/03 02:53:32;;;;;;;26.70;15.88;;;4.40;99.90;;;;;;5076810;28;20142;-72
2023/01/03 02:56:04;;;;;;;25.05;16.65;;;4.40;99.90;;;;;;5081753;28;20162;-72
2023/01/03 02:58:35;;;;;;;24.63;16.98;;;4.40;99.90;;;;;;5083198;28;20502;-72
2023/01/03 03:01:02;;;;;;;22.40;17.23;;;4.40;99.90;;;;;;5067926;28;20048;-72
2023/01/03 03:03:30;;;;;;;;;;;4.40;99.90;;;;;;5081336;28;20055;-72
2023/01/03 03:06:06;;;;;;;25.52;16.83;;;4.40;99.90;;;;;;5102347;28;19920;-72
2023/01/03 03:08:32;;;;;;;27.00;18.95;;;4.40;99.90;;;;;;5063282;28;20340;-72
2023/01/03 03:13:45;;;;;;;29.15;19.08;;;4.40;99.90;;;;;;5081299;28;20052;-72
2023/01/03 03:16:46;;;;;;;27.58;19.70;;;4.40;99.90;;;;;;5065274;28;20047;-73
2023/01/03 03:24:48;;;;;;;29.65;19.02;;;4.30;99.90;;;;;;5057477;28;20082;-72
2023/01/03 03:25:21;;;;;;;;;;;4.30;99.90;;;;;;5063094;28;20048;-72
2023/01/03 03:30:38;;;;;;;28.10;19.77;;;4.20;99.90;;;;;;5085965;28;20495;-72
2023/01/03 03:33:06;;;;;;;28.50;19.70;;;4.10;99.90;;;;;;5081738;28;20044;-72
2023/01/03 03:35:38;;;;;;;28.75;20.65;;;4.10;99.90;;;;;;5084094;28;20044;-72
2023/01/03 03:38:06;;;;;;;28.20;19.85;;;4.10;99.90;;;;;;5080781;28;20059;-72
2023/01/03 03:46:26;;;;;;;34.00;23.58;;;4.10;99.90;;;;;;5054368;28;20053;-72
2023/01/03 03:52:00;;;;;;;32.50;23.48;;;4.20;99.90;;;;;;5077171;28;20092;-72
2023/01/03 03:54:28;;;;;;;35.75;24.60;;;4.20;99.90;;;;;;5079031;28;20700;-72
2023/01/03 03:57:03;;;;;;;32.58;24.02;;;4.20;99.90;;;;;;5088760;28;20551;-74
2023/01/03 03:59:30;;;;;;;35.13;23.25;;;4.20;99.90;;;;;;5086573;28;20052;-71
2023/01/03 04:01:59;;;;;;;33.80;23.67;;;4.20;99.90;;;;;;5080367;28;20086;-72
2023/01/03 04:04:31;;;;;;;34.75;23.00;;;4.20;99.90;;;;;;5085021;28;20040;-72
2023/01/03 04:06:57;;;;;;;37.78;25.20;;;4.20;99.90;;;;;;5102637;28;20043;-72
2023/01/03 04:09:23;;;;;;;33.60;24.17;;;4.20;99.90;;;;;;5080488;28;20717;-72
2023/01/03 04:11:48;;;;;;;37.15;25.08;;;4.10;99.90;;;;;;5083639;28;20047;-72
2023/01/03 04:14:14;;;;;;;33.55;24.48;;;4.10;99.90;;;;;;5061825;28;20069;-72
2023/01/03 04:16:40;;;;;;;36.45;25.13;;;4.10;99.90;;;;;;5068841;28;20086;-72
2023/01/03 04:19:05;;;;;;;36.58;26.10;;;4.20;99.90;;;;;;5083251;28;20101;-72
2023/01/03 04:21:31;;;;;;;34.13;24.75;;;4.10;99.90;;;;;;5048705;28;20040;-72
2023/01/03 04:23:57;;;;;;;34.22;24.60;;;4.10;99.90;;;;;;5079958;28;20047;-72
2023/01/03 04:26:22;;;;;;;31.60;23.40;;;4.00;99.90;;;;;;5085677;28;20093;-72
2023/01/03 04:28:48;;;;;;;33.30;23.98;;;4.10;99.90;;;;;;5064883;28;20048;-72
2023/01/03 04:31:14;;;;;;;31.27;24.23;;;4.00;99.90;;;;;;5063691;28;20075;-72
2023/01/03 04:33:40;;;;;;;30.65;24.52;;;4.00;99.90;;;;;;5080327;28;20458;-74
2023/01/03 04:36:06;;;;;;;35.47;24.42;;;3.90;99.90;;;;;;5097076;28;20088;-72
2023/01/03 04:38:31;;;;;;;32.15;24.98;;;3.90;99.90;;;;;;5082710;28;20109;-72
2023/01/03 04:41:07;;;;;;;35.13;25.00;;;3.90;99.90;;;;;;5087062;28;20131;-72
2023/01/03 04:46:18;;;;;;;32.45;24.77;;;3.90;99.90;;;;;;5083120;28;20040;-72
2023/01/03 04:48:44;;;;;;;36.55;26.42;;;3.80;99.90;;;;;;5081758;28;20111;-72
2023/01/03 04:51:09;;;;;;;40.28;26.90;;;3.80;99.90;;;;;;5088533;28;20119;-72
2023/01/03 04:53:35;;;;;;;37.60;27.80;;;3.80;99.90;;;;;;5080023;28;20388;-72
2023/01/03 04:56:01;;;;;;;37.33;28.02;;;3.80;99.90;;;;;;5080183;28;20043;-72
2023/01/03 04:58:27;;;;;;;38.67;27.83;;;3.90;99.90;;;;;;5085282;28;20105;-72
2023/01/03 05:00:59;;;;;;;40.60;29.13;;;3.90;99.90;;;;;;5085004;28;20059;-72
2023/01/03 05:03:24;;;;;;;36.25;27.73;;;3.90;99.90;;;;;;5079045;28;20048;-72
2023/01/03 05:05:50;;;;;;;36.83;28.00;;;3.90;99.90;;;;;;5060651;28;20040;-73
2023/01/03 05:08:15;;;;;;;38.17;28.45;;;3.90;99.90;;;;;;5081536;28;20114;-73
2023/01/03 05:10:41;;;;;;;35.75;27.83;;;3.90;99.90;;;;;;5087883;28;20094;-73
2023/01/03 05:13:07;;;;;;;36.53;26.73;;;3.90;99.90;;;;;;5065821;28;20123;-73
2023/01/03 05:15:38;;;;;;;34.05;26.15;;;3.90;99.90;;;;;;5086969;28;20039;-73
2023/01/03 05:18:04;;;;;;;33.72;26.05;;;3.90;99.90;;;;;;5085579;28;20043;-73
2023/01/03 05:26:20;;;;;;;36.20;26.73;;;3.80;99.90;;;;;;5086580;28;20167;-73
2023/01/03 05:28:50;;;;;;;37.15;27.45;;;3.80;99.90;;;;;;5085554;28;20067;-73
2023/01/03 05:31:16;;;;;;;36.17;27.63;;;3.90;99.90;;;;;;5081910;28;20096;-73
2023/01/03 05:33:42;;;;;;;39.10;28.63;;;3.80;99.90;;;;;;5082393;28;20441;-73
2023/01/03 05:36:09;;;;;;;37.95;27.90;;;3.90;99.90;;;;;;5084051;28;20040;-73
2023/01/03 05:38:35;;;;;;;40.00;29.00;;;3.90;99.90;;;;;;5075773;28;20094;-73
2023/01/03 05:41:00;;;;;;;35.92;28.52;;;4.00;99.90;;;;;;5083509;28;20092;-73
2023/01/03 05:43:26;;;;;;;37.63;28.48;;;3.90;99.90;;;;;;5082723;28;20044;-74
2023/01/03 05:45:52;;;;;;;42.25;30.10;;;3.90;99.90;;;;;;5087262;28;20048;-74
2023/01/03 05:48:19;;;;;;;36.83;29.40;;;3.90;99.90;;;;;;5084347;28;20062;-73
2023/01/03 05:50:45;;;;;;;41.13;30.77;;;3.90;99.90;;;;;;5085752;28;20044;-74
2023/01/03 05:53:11;;;;;;;38.72;29.02;;;3.90;99.90;;;;;;5081199;28;20052;-73
2023/01/03 05:55:37;;;;;;;41.83;31.55;;;3.90;99.90;;;;;;5063108;28;20063;-73
2023/01/03 05:58:04;;;;;;;44.85;35.05;;;3.90;99.90;;;;;;5093077;27;20527;-73
2023/01/03 06:00:30;;;;;;;42.00;33.58;;;3.90;99.90;;;;;;5065573;28;20131;-73
2023/01/03 06:02:55;;;;;;;49.72;35.58;;;3.90;99.90;;;;;;5060190;28;20131;-73
2023/01/03 06:05:21;;;;;;;48.15;34.08;;;3.80;99.90;;;;;;5085294;28;20123;-73
2023/01/03 06:07:47;;;;;;;47.28;33.33;;;3.80;99.90;;;;;;5060992;28;20368;-73
2023/01/03 06:10:13;;;;;;;65.45;34.63;;;3.80;99.90;;;;;;5077262;28;20467;-73
2023/01/03 06:12:38;;;;;;;91.18;36.22;;;3.80;99.90;;;;;;5097413;27;20142;-74
2023/01/03 06:15:05;;;;;;;62.95;36.42;;;3.80;99.90;;;;;;5085851;28;20115;-73
2023/01/03 06:20:15;;;;;;;128.75;36.33;;;3.80;99.90;;;;;;5078463;28;20044;-73
2023/01/03 06:22:41;;;;;;;97.55;34.97;;;3.70;99.90;;;;;;5082115;28;20399;-74
2023/01/03 06:25:07;;;;;;;203.98;34.60;;;3.70;99.90;;;;;;5076981;28;20046;-74
2023/01/03 06:27:32;;;;;;;157.82;32.17;;;3.80;99.90;;;;;;5055925;28;20047;-74
2023/01/03 06:29:58;;;;;;;143.57;33.28;;;3.80;99.90;;;;;;5075340;28;20063;-74
2023/01/03 06:32:24;;;;;;;205.85;35.25;;;3.80;99.90;;;;;;5059140;28;20682;-74
2023/01/03 06:34:50;;;;;;;93.60;28.55;;;3.80;99.90;;;;;;5061765;28;20686;-74
2023/01/03 06:37:16;;;;;;;72.13;27.05;;;3.80;99.90;;;;;;5077977;28;20044;-73
2023/01/03 06:39:41;;;;;;;56.13;26.17;;;3.80;99.90;;;;;;5080065;28;20047;-76
2023/01/03 06:53:16;;;;;;;75.45;29.20;;;3.90;99.90;;;;;;5075836;28;20056;-73
2023/01/03 06:55:44;;;;;;;72.57;28.98;;;3.90;99.90;;;;;;5077891;28;20078;-74
2023/01/03 06:58:12;;;;;;;43.05;25.00;;;3.90;99.90;;;;;;5083274;28;20578;-80
2023/01/03 07:00:40;;;;;;;87.28;28.45;;;3.90;99.90;;;;;;5095925;28;20052;-74
2023/01/03 07:03:06;;;;;;;91.57;24.77;;;3.90;99.90;;;;;;5067081;28;20055;-74
2023/01/03 07:05:31;;;;;;;66.30;26.33;;;3.90;99.90;;;;;;5083954;28;20055;-74
2023/01/03 07:07:58;;;;;;;51.33;25.77;;;3.90;99.90;;;;;;5085165;28;20399;-74
2023/01/03 07:10:23;;;;;;;74.72;26.52;;;3.90;99.90;;;;;;5080265;28;20043;-74
2023/01/03 07:15:33;;;;;;;51.92;24.45;;;4.00;99.90;;;;;;5082179;28;20554;-74
2023/01/03 07:17:59;;;;;;;94.18;27.65;;;4.00;99.90;;;;;;5076715;28;20255;-74
2023/01/03 07:20:24;;;;;;;168.60;29.15;;;4.00;99.90;;;;;;5066142;28;20178;-74
2023/01/03 07:22:54;;;;;;;110.75;26.90;;;4.10;99.90;;;;;;5081646;28;20032;-74
2023/01/03 07:25:20;;;;;;;102.93;25.67;;;4.10;99.90;;;;;;5085585;28;20475;-74
2023/01/03 07:27:56;;;;;;;37.55;24.60;;;4.10;99.90;;;;;;5062173;28;20043;-74
2023/01/03 07:30:22;;;;;;;68.85;26.65;;;4.10;99.90;;;;;;5102861;28;20032;-73
2023/01/03 07:32:51;;;;;;;62.05;27.27;;;4.10;99.90;;;;;;5100546;28;20079;-74
2023/01/03 07:35:17;;;;;;;56.25;27.58;;;4.10;99.90;;;;;;5070249;28;20047;-74
2023/01/03 07:37:43;;;;;;;69.38;28.88;;;4.10;99.90;;;;;;5061224;28;20054;-74
2023/01/03 07:40:09;;;;;;;87.88;29.20;;;4.20;99.90;;;;;;5069349;28;20815;-74
2023/01/03 07:45:20;;;;;;;39.90;28.10;;;4.20;99.90;;;;;;5071279;28;20117;-74
2023/01/03 07:47:46;;;;;;;63.50;30.25;;;4.30;99.90;;;;;;5064410;28;20425;-74
2023/01/03 07:50:12;;;;;;;99.55;34.33;;;4.30;99.90;;;;;;5081532;28;20135;-73
2023/01/03 07:52:38;;;;;;;59.92;29.80;;;4.30;99.90;;;;;;5060658;28;20149;-74
2023/01/03 07:55:04;;;;;;;57.42;32.75;;;4.30;99.90;;;;;;5083141;28;20047;-74
2023/01/03 07:57:30;;;;;;;53.40;30.52;;;4.30;99.90;;;;;;5083710;28;20070;-73
2023/01/03 07:59:56;;;;;;;62.90;33.40;;;4.40;99.90;;;;;;5067489;28;20032;-73
2023/01/03 08:02:22;;;;;;;53.83;35.42;;;4.40;99.90;;;;;;5074068;28;20090;-75
2023/01/03 08:04:47;;;;;;;51.90;33.38;;;4.40;99.90;;;;;;5079983;28;20055;-77
2023/01/03 08:07:13;;;;;;;68.97;36.63;;;4.50;99.90;;;;;;5068620;28;20127;-74
2023/01/03 08:15:08;;;;;;;59.17;34.00;;;4.50;99.90;;;;;;5081466;28;20048;-75
2023/01/03 08:17:33;;;;;;;51.00;34.22;;;4.60;99.90;;;;;;5086337;28;20422;-76
2023/01/03 08:19:59;;;;;;;59.75;36.47;;;4.60;99.90;;;;;;5087882;28;20050;-75
2023/01/03 08:22:26;;;;;;;61.97;38.47;;;4.60;99.90;;;;;;5069587;28;20150;-76
2023/01/03 08:24:51;;;;;;;56.33;35.08;;;4.70;99.90;;;;;;5069902;28;20483;-76
2023/01/03 08:27:17;;;;;;;63.83;38.97;;;4.70;99.90;;;;;;5089986;28;20046;-77
2023/01/03 08:29:45;;;;;;;58.63;37.72;;;4.80;99.90;;;;;;5089719;28;20059;-77
2023/01/03 08:32:11;;;;;;;53.97;36.13;;;4.80;99.90;;;;;;5088497;28;20654;-77
2023/01/03 08:34:40;;;;;;;55.75;37.03;;;4.90;99.90;;;;;;5066308;28;20071;-76
2023/01/03 08:37:09;;;;;;;54.72;37.00;;;4.90;99.90;;;;;;5094562;28;20032;-75
2023/01/03 08:39:40;;;;;;;56.65;37.15;;;5.00;99.90;;;;;;5088878;28;20044;-76
2023/01/03 08:42:08;;;;;;;53.92;37.45;;;5.00;99.90;;;;;;5089124;28;20040;-76
2023/01/03 08:44:34;;;;;;;56.10;38.03;;;5.00;99.90;;;;;;5081596;28;20448;-73
2023/01/03 08:47:02;;;;;;;56.15;37.30;;;5.10;99.90;;;;;;5082748;28;20062;-73
2023/01/03 08:49:28;;;;;;;52.35;35.10;;;5.10;99.90;;;;;;5102300;27;20437;-74
2023/01/03 08:51:54;;;;;;;52.42;35.25;;;5.10;99.90;;;;;;5089103;28;20754;-70
2023/01/03 08:54:19;;;;;;;49.38;34.15;;;5.10;99.90;;;;;;5088163;28;20048;-70
2023/01/03 08:56:45;;;;;;;53.85;34.45;;;5.10;99.90;;;;;;5089210;28;20081;-74
2023/01/03 08:59:11;;;;;;;51.42;34.05;;;5.10;99.90;;;;;;5086632;28;20081;-74
2023/01/03 09:01:36;;;;;;;56.72;36.13;;;5.10;99.90;;;;;;5068613;28;20048;-75
2023/01/03 09:04:04;;;;;;;57.08;36.60;;;5.10;99.90;;;;;;5084292;28;20126;-74
2023/01/03 09:06:29;;;;;;;56.15;35.63;;;5.10;99.90;;;;;;5083774;28;20047;-73
2023/01/03 09:08:55;;;;;;;62.92;38.33;;;5.10;99.90;;;;;;5064289;28;20075;-74
2023/01/03 09:11:21;;;;;;;56.80;35.95;;;5.10;99.90;;;;;;5063477;28;20036;-73
2023/01/03 09:13:46;;;;;;;56.13;34.50;;;5.10;99.90;;;;;;5087584;28;20143;-72
2023/01/03 09:16:15;;;;;;;52.85;33.50;;;5.20;99.90;;;;;;5087379;28;20032;-74
2023/01/03 09:18:41;;;;;;;56.13;34.70;;;5.20;99.90;;;;;;5069248;28;20039;-73
2023/01/03 09:21:07;;;;;;;53.58;33.35;;;5.20;99.90;;;;;;5080859;28;20028;-72
2023/01/03 09:23:35;;;;;;;58.08;36.80;;;5.20;99.90;;;;;;5092735;28;20143;-72
2023/01/03 09:26:00;;;;;;;57.42;34.67;;;5.30;99.90;;;;;;5082555;28;20065;-76
2023/01/03 09:28:26;;;;;;;67.18;38.30;;;5.20;99.90;;;;;;5087214;28;20392;-71
2023/01/03 09:30:52;;;;;;;64.13;38.70;;;5.20;99.90;;;;;;5083858;28;20634;-73
2023/01/03 09:33:18;;;;;;;76.95;41.92;;;5.30;99.90;;;;;;5085324;28;20463;-76
2023/01/03 09:35:43;;;;;;;70.78;39.80;;;5.30;99.90;;;;;;5068337;28;20048;-75
2023/01/03 09:38:09;;;;;;;74.82;43.22;;;5.20;99.90;;;;;;5090748;28;20048;-74
2023/01/03 09:40:40;;;;;;;77.82;43.35;;;5.30;99.90;;;;;;5080073;28;20032;-77
2023/01/03 09:43:13;;;;;;;77.53;42.05;;;5.30;99.90;;;;;;5064780;28;20052;-83
2023/01/03 09:45:47;;;;;;;69.05;42.58;;;5.40;99.90;;;;;;5087135;28;20047;-84
2023/01/03 09:48:16;;;;;;;72.43;42.75;;;5.40;99.90;;;;;;5086950;28;20135;-79
2023/01/03 09:50:43;;;;;;;70.65;42.28;;;5.50;99.90;;;;;;5086336;28;20047;-79
2023/01/03 10:05:07;;;;;;;75.82;44.35;;;5.50;99.90;;;;;;5083398;28;20368;-78
2023/01/03 10:08:00;;;;;;;73.10;42.65;;;5.60;99.90;;;;;;5087073;28;20040;-78
2023/01/03 10:10:55;;;;;;;71.68;43.38;;;5.60;99.90;;;;;;5086950;28;20122;-80
2023/01/03 10:13:34;;;;;;;82.75;44.17;;;5.60;99.90;;;;;;5064022;28;20040;-70
2023/01/03 10:16:18;;;;;;;73.65;44.40;;;5.60;99.90;;;;;;5079307;28;20044;-70
2023/01/03 10:19:06;;;;;;;77.30;43.85;;;5.60;99.90;;;;;;5082629;28;20482;-68
2023/01/03 10:21:44;;;;;;;86.47;45.90;;;5.60;99.90;;;;;;5086880;28;20553;-71
2023/01/03 10:24:29;;;;;;;86.47;45.15;;;5.60;99.90;;;;;;5066440;28;20068;-70
2023/01/03 10:27:02;;;;;;;83.65;45.85;;;5.70;99.90;;;;;;5068852;28;20056;-76
2023/01/03 10:29:28;;;;;;;85.95;47.28;;;5.60;99.90;;;;;;5060697;28;20092;-71
2023/01/03 10:32:31;;;;;;;82.10;46.22;;;5.70;99.90;;;;;;5086236;28;20059;-72
2023/01/03 10:35:15;;;;;;;86.22;47.58;;;5.70;99.90;;;;;;5082022;28;20044;-73
2023/01/03 10:37:42;;;;;;;72.75;45.85;;;5.70;99.90;;;;;;5086958;28;20048;-73
2023/01/03 10:40:08;;;;;;;81.38;47.33;;;5.80;99.90;;;;;;5083543;28;20071;-73
2023/01/03 10:42:37;;;;;;;80.63;46.85;;;5.80;99.90;;;;;;5083556;28;20044;-72
2023/01/03 10:45:13;;;;;;;73.43;45.42;;;5.80;99.90;;;;;;5081523;28;20035;-74
2023/01/03 10:47:38;;;;;;;81.30;46.42;;;5.80;99.90;;;;;;5086649;28;20047;-73
2023/01/03 10:50:05;;;;;;;84.10;47.28;;;5.80;99.90;;;;;;5085075;28;20032;-74
2023/01/03 10:52:39;;;;;;;81.60;46.63;;;5.90;99.90;;;;;;5080050;28;20143;-75
2023/01/03 10:55:17;;;;;;;73.10;43.92;;;5.90;99.90;;;;;;5064023;28;20498;-75
2023/01/03 10:57:58;;;;;;;68.85;42.80;;;5.90;99.90;;;;;;5086753;28;20134;-75
2023/01/03 11:00:26;;;;;;;75.35;44.65;;;5.90;99.90;;;;;;5065986;28;20094;-75
2023/01/03 11:02:54;;;;;;;71.95;45.53;;;5.90;99.90;;;;;;5084906;28;20469;-75
2023/01/03 11:05:24;;;;;;;;;;;6.00;99.90;;;;;;5070562;28;20488;-78
2023/01/03 11:07:58;;;;;;;74.95;44.33;;;6.00;99.90;;;;;;5081360;28;20007;-72
2023/01/03 11:10:35;;;;;;;78.03;45.63;;;6.00;99.90;;;;;;5081420;28;20055;-77
2023/01/03 11:13:28;;;;;;;82.60;46.58;;;6.00;99.90;;;;;;5065794;28;20094;-75
2023/01/03 11:15:59;;;;;;;78.32;47.03;;;6.10;99.90;;;;;;5080448;28;20055;-74
2023/01/03 11:18:26;;;;;;;82.15;48.13;;;6.10;99.90;;;;;;5075366;28;20058;-77
2023/01/03 11:21:36;;;;;;;77.97;50.40;;;6.20;99.90;;;;;;5099968;28;20040;-74
2023/01/03 11:24:29;;;;;;;69.05;43.08;;;6.20;99.90;;;;;;5002353;28;20511;-75
2023/01/03 11:27:36;;;;;;;72.38;43.20;;;6.20;99.90;;;;;;5081507;28;20129;-78
2023/01/03 11:30:23;;;;;;;80.18;45.35;;;6.30;99.90;;;;;;5075357;28;20059;-76
2023/01/03 11:33:11;;;;;;;85.13;46.63;;;6.30;99.90;;;;;;5073878;28;20727;-76
2023/01/03 11:35:54;;;;;;;65.70;39.72;;;6.40;99.90;;;;;;5083490;28;20044;-77
2023/01/03 11:38:26;;;;;;;55.90;38.50;;;6.40;99.90;;;;;;5065463;28;20093;-81
2023/01/03 11:41:17;;;;;;;55.83;33.80;;;6.50;99.90;;;;;;5062194;28;20032;-78
2023/01/03 11:43:57;;;;;;;45.08;35.17;;;6.50;99.90;;;;;;5081991;28;20380;-76
2023/01/03 11:46:53;;;;;;;46.05;30.85;;;6.50;99.90;;;;;;5074658;28;20098;-78
2023/01/03 11:50:07;;;;;;;46.97;30.55;;;6.60;99.90;;;;;;5064824;28;20040;-76
2023/01/03 11:53:00;;;;;;;43.20;28.45;;;6.60;99.90;;;;;;4995422;28;20056;-75
2023/01/03 11:55:47;;;;;;;37.20;26.70;;;6.60;99.90;;;;;;5080870;28;20545;-83
2023/01/03 11:58:26;;;;;;;37.67;26.60;;;6.70;99.90;;;;;;5079280;28;20048;-74
2023/01/03 12:01:15;;;;;;;30.85;23.27;;;6.70;99.90;;;;;;5066290;28;20129;-76
2023/01/03 12:04:06;;;;;;;35.53;24.40;;;6.60;99.90;;;;;;5062132;28;20055;-74
2023/01/03 12:06:57;;;;;;;33.28;23.27;;;6.70;99.90;;;;;;5067795;28;20040;-75
2023/01/03 12:09:51;;;;;;;31.73;23.38;;;6.70;99.90;;;;;;5080473;28;20491;-74
2023/01/03 12:12:39;;;;;;;31.75;23.45;;;6.70;99.90;;;;;;5073045;28;20040;-73
2023/01/03 12:15:19;;;;;;;35.03;25.95;;;6.80;99.90;;;;;;5065359;28;20503;-73
2023/01/03 12:18:23;;;;;;;29.58;24.30;;;6.80;99.90;;;;;;5086128;28;20036;-73
2023/01/03 12:21:03;;;;;;;29.25;22.35;;;6.80;99.90;;;;;;5088299;28;20040;-73
2023/01/03 12:23:35;;;;;;;31.20;22.60;;;6.80;99.90;;;;;;5083095;28;20107;-73
2023/01/03 12:26:06;;;;;;;36.45;24.98;;;6.80;99.90;;;;;;5082858;28;20557;-75
2023/01/03 12:28:50;;;;;;;32.38;24.58;;;6.80;99.90;;;;;;5067259;28;20089;-75
2023/01/03 12:31:19;;;;;;;34.88;23.58;;;6.80;99.90;;;;;;5088044;28;20112;-77
2023/01/03 12:33:44;;;;;;;33.00;25.08;;;6.90;99.90;;;;;;5069659;28;20519;-76
2023/01/03 12:36:44;;;;;;;32.47;25.02;;;6.90;99.90;;;;;;5089538;28;20103;-76
2023/01/03 12:39:45;;;;;;;32.00;24.58;;;6.90;99.90;;;;;;5084286;28;20044;-77
2023/01/03 12:42:19;;;;;;;32.58;23.25;;;6.90;99.90;;;;;;5050639;28;20051;-76
2023/01/03 12:44:48;;;;;;;32.42;24.23;;;6.90;99.90;;;;;;5084994;28;20083;-75
2023/01/03 12:47:47;;;;;;;31.42;23.35;;;6.90;99.90;;;;;;5088274;28;20056;-74
2023/01/03 12:50:30;;;;;;;31.42;22.15;;;7.00;99.90;;;;;;5049073;28;20048;-78
2023/01/03 12:53:19;;;;;;;35.55;24.27;;;6.90;99.90;;;;;;5085550;28;20083;-74
2023/01/03 12:56:02;;;;;;;32.50;22.48;;;7.00;99.90;;;;;;5067696;28;20050;-76
2023/01/03 12:58:55;;;;;;;31.33;23.00;;;7.00;99.90;;;;;;5071139;28;20124;-74
2023/01/03 13:01:44;;;;;;;33.38;23.27;;;7.00;99.90;;;;;;5084901;28;20032;-73
2023/01/03 13:04:35;;;;;;;35.28;23.08;;;7.00;99.90;;;;;;5084183;28;20047;-74
2023/01/03 13:07:17;;;;;;;31.10;23.30;;;7.10;99.90;;;;;;5073867;28;20052;-72
2023/01/03 13:09:50;;;;;;;30.58;22.27;;;7.00;99.90;;;;;;5101444;27;20059;-77
2023/01/03 13:12:20;;;;;;;30.35;22.63;;;7.10;99.90;;;;;;5085605;28;20080;-76
2023/01/03 13:15:01;;;;;;;29.75;22.13;;;7.10;99.90;;;;;;5087794;28;20094;-73
2023/01/03 13:17:28;;;;;;;30.83;21.45;;;7.10;99.90;;;;;;5075011;28;20044;-73
2023/01/03 13:20:16;;;;;;;31.95;22.67;;;7.20;99.90;;;;;;5089214;28;20147;-73
2023/01/03 13:23:20;;;;;;;31.52;20.38;;;7.10;99.90;;;;;;5088957;28;20131;-77
2023/01/03 13:26:09;;;;;;;31.85;20.75;;;7.10;99.90;;;;;;5086267;28;20119;-75
2023/01/03 13:28:36;;;;;;;26.85;19.63;;;7.20;99.90;;;;;;5063703;28;20507;-76
2023/01/03 13:31:17;;;;;;;26.08;19.50;;;7.20;99.90;;;;;;5086387;28;20078;-75
2023/01/03 13:34:29;;;;;;;33.17;20.52;;;7.20;99.90;;;;;;5086546;28;20052;-74
2023/01/03 13:37:07;;;;;;;25.85;18.25;;;7.20;99.90;;;;;;5080532;28;20418;-72
2023/01/03 13:39:39;;;;;;;26.58;20.40;;;7.20;99.90;;;;;;5083400;28;20039;-73
2023/01/03 13:42:17;;;;;;;27.73;19.25;;;7.20;99.90;;;;;;5082547;28;20089;-76
2023/01/03 13:44:43;;;;;;;27.70;19.05;;;7.20;99.90;;;;;;5075266;28;20093;-76
2023/01/03 13:47:23;;;;;;;24.25;20.05;;;7.10;99.90;;;;;;5069057;28;20044;-74
2023/01/03 13:49:48;;;;;;;27.40;18.13;;;7.20;99.90;;;;;;5082553;28;20036;-70
2023/01/03 13:52:34;;;;;;;27.73;20.08;;;7.30;99.90;;;;;;5068458;28;20395;-72
2023/01/03 13:55:01;;;;;;;23.45;18.55;;;7.20;99.90;;;;;;5055073;28;20094;-77
2023/01/03 13:57:36;;;;;;;21.88;19.15;;;7.20;99.90;;;;;;5082105;28;20130;-73
2023/01/03 14:00:12;;;;;;;23.65;17.92;;;7.30;99.90;;;;;;5087975;28;20043;-72
2023/01/03 14:03:02;;;;;;;28.88;21.27;;;7.30;99.90;;;;;;5066586;28;20052;-71
2023/01/03 14:05:48;;;;;;;23.98;20.17;;;7.30;99.90;;;;;;5079051;28;20119;-71
2023/01/03 14:08:46;;;;;;;27.80;20.85;;;7.40;99.90;;;;;;5068535;28;20054;-71
2023/01/03 14:11:23;;;;;;;25.08;18.52;;;7.30;99.90;;;;;;5087462;28;20055;-73